sensor_id;sensor_type;location;lat;lon;timestamp;pressure;altitude;pressure_sealevel;temperature;humidity
82949;BME280;72736;50.236;18.876;2024-01-11T00:04:15;99918.36;;;-12.90;68.33
82949;BME280;72736;50.236;18.876;2024-01-11T00:09:21;99909.67;;;-12.93;68.55
82949;BME280;72736;50.236;18.876;2024-01-11T00:14:27;99904.89;;;-12.95;68.84
82949;BME280;72736;50.236;18.876;2024-01-11T00:19:33;99904.44;;;-12.97;69.40
82949;BME280;72736;50.236;18.876;2024-01-11T00:24:39;99901.27;;;-12.94;69.06
82949;BME280;72736;50.236;18.876;2024-01-11T00:29:45;99895.09;;;-12.94;68.69
82949;BME280;72736;50.236;18.876;2024-01-11T00:34:51;99892.23;;;-12.97;68.59
82949;BME280;72736;50.236;18.876;2024-01-11T00:39:58;99890.77;;;-13.01;68.21
82949;BME280;72736;50.236;18.876;2024-01-11T00:45:04;99887.14;;;-13.06;68.19
82949;BME280;72736;50.236;18.876;2024-01-11T00:50:10;99875.80;;;-13.13;68.34
82949;BME280;72736;50.236;18.876;2024-01-11T00:55:16;99871.40;;;-13.16;68.51
82949;BME280;72736;50.236;18.876;2024-01-11T01:00:22;99868.05;;;-13.19;68.32
82949;BME280;72736;50.236;18.876;2024-01-11T01:05:28;99875.35;;;-13.22;68.54
82949;BME280;72736;50.236;18.876;2024-01-11T01:10:34;99875.88;;;-13.23;68.45
82949;BME280;72736;50.236;18.876;2024-01-11T01:15:39;99873.17;;;-13.24;68.20
82949;BME280;72736;50.236;18.876;2024-01-11T01:20:45;99872.93;;;-13.28;67.90
82949;BME280;72736;50.236;18.876;2024-01-11T01:25:51;99872.98;;;-13.36;68.04
82949;BME280;72736;50.236;18.876;2024-01-11T01:30:57;99867.05;;;-13.45;68.56
82949;BME280;72736;50.236;18.876;2024-01-11T01:36:03;99858.85;;;-13.47;68.40
82949;BME280;72736;50.236;18.876;2024-01-11T01:41:09;99856.48;;;-13.48;68.31
82949;BME280;72736;50.236;18.876;2024-01-11T01:46:21;99856.86;;;-13.50;68.22
82949;BME280;72736;50.236;18.876;2024-01-11T01:51:31;99849.88;;;-13.52;68.68
82949;BME280;72736;50.236;18.876;2024-01-11T01:56:37;99849.38;;;-13.53;68.53
82949;BME280;72736;50.236;18.876;2024-01-11T02:01:43;99853.10;;;-13.58;69.06
82949;BME280;72736;50.236;18.876;2024-01-11T02:06:50;99845.91;;;-13.59;68.63
82949;BME280;72736;50.236;18.876;2024-01-11T02:11:59;99838.52;;;-13.58;68.49
82949;BME280;72736;50.236;18.876;2024-01-11T02:17:05;99843.86;;;-13.59;68.51
82949;BME280;72736;50.236;18.876;2024-01-11T02:22:15;99825.70;;;-13.61;68.27
82949;BME280;72736;50.236;18.876;2024-01-11T02:27:26;99830.10;;;-13.65;68.30
82949;BME280;72736;50.236;18.876;2024-01-11T02:32:31;99822.50;;;-13.70;68.63
82949;BME280;72736;50.236;18.876;2024-01-11T02:37:38;99823.27;;;-13.73;68.57
82949;BME280;72736;50.236;18.876;2024-01-11T02:42:44;99819.86;;;-13.75;68.29
82949;BME280;72736;50.236;18.876;2024-01-11T02:47:50;99823.59;;;-13.79;68.25
82949;BME280;72736;50.236;18.876;2024-01-11T02:52:56;99827.77;;;-13.82;68.45
82949;BME280;72736;50.236;18.876;2024-01-11T02:58:02;99825.89;;;-13.82;68.46
82949;BME280;72736;50.236;18.876;2024-01-11T03:03:08;99833.67;;;-13.84;68.33
82949;BME280;72736;50.236;18.876;2024-01-11T03:08:14;99828.94;;;-13.87;68.23
82949;BME280;72736;50.236;18.876;2024-01-11T03:13:20;99818.67;;;-13.89;68.00
82949;BME280;72736;50.236;18.876;2024-01-11T03:18:25;99801.24;;;-13.93;67.84
82949;BME280;72736;50.236;18.876;2024-01-11T03:23:31;99798.96;;;-13.98;68.05
82949;BME280;72736;50.236;18.876;2024-01-11T03:28:37;99794.60;;;-14.01;68.17
82949;BME280;72736;50.236;18.876;2024-01-11T03:33:43;99789.32;;;-14.03;68.11
82949;BME280;72736;50.236;18.876;2024-01-11T03:38:48;99778.36;;;-14.04;68.29
82949;BME280;72736;50.236;18.876;2024-01-11T03:43:56;99777.46;;;-14.02;68.55
82949;BME280;72736;50.236;18.876;2024-01-11T03:49:01;99773.33;;;-14.02;68.96
82949;BME280;72736;50.236;18.876;2024-01-11T03:54:07;99782.38;;;-14.00;68.72
82949;BME280;72736;50.236;18.876;2024-01-11T03:59:13;99789.69;;;-14.04;68.56
82949;BME280;72736;50.236;18.876;2024-01-11T04:04:19;99781.88;;;-14.07;68.91
82949;BME280;72736;50.236;18.876;2024-01-11T04:09:26;99788.21;;;-14.07;68.44
82949;BME280;72736;50.236;18.876;2024-01-11T04:14:32;99781.72;;;-14.08;68.71
82949;BME280;72736;50.236;18.876;2024-01-11T04:19:39;99778.70;;;-14.11;68.28
82949;BME280;72736;50.236;18.876;2024-01-11T04:24:44;99767.14;;;-14.15;67.98
82949;BME280;72736;50.236;18.876;2024-01-11T04:29:50;99752.13;;;-14.19;68.21
82949;BME280;72736;50.236;18.876;2024-01-11T04:34:56;99768.17;;;-14.23;68.38
82949;BME280;72736;50.236;18.876;2024-01-11T04:40:02;99779.61;;;-14.27;68.81
82949;BME280;72736;50.236;18.876;2024-01-11T04:45:11;99777.66;;;-14.24;69.25
82949;BME280;72736;50.236;18.876;2024-01-11T04:50:16;99766.77;;;-14.22;68.51
82949;BME280;72736;50.236;18.876;2024-01-11T04:55:26;99766.19;;;-14.25;68.03
82949;BME280;72736;50.236;18.876;2024-01-11T05:00:31;99773.19;;;-14.32;68.57
82949;BME280;72736;50.236;18.876;2024-01-11T05:05:37;99775.91;;;-14.39;68.48
82949;BME280;72736;50.236;18.876;2024-01-11T05:10:44;99763.73;;;-14.38;68.69
82949;BME280;72736;50.236;18.876;2024-01-11T05:15:51;99756.23;;;-14.40;68.39
82949;BME280;72736;50.236;18.876;2024-01-11T05:20:56;99743.11;;;-14.44;68.01
82949;BME280;72736;50.236;18.876;2024-01-11T05:26:03;99727.44;;;-14.48;68.17
82949;BME280;72736;50.236;18.876;2024-01-11T05:31:11;99718.59;;;-14.52;67.99
82949;BME280;72736;50.236;18.876;2024-01-11T05:36:19;99721.23;;;-14.54;68.46
82949;BME280;72736;50.236;18.876;2024-01-11T05:41:26;99730.96;;;-14.52;68.82
82949;BME280;72736;50.236;18.876;2024-01-11T05:46:31;99732.16;;;-14.44;69.30
82949;BME280;72736;50.236;18.876;2024-01-11T05:51:37;99734.68;;;-14.42;69.09
82949;BME280;72736;50.236;18.876;2024-01-11T05:56:43;99718.16;;;-14.40;68.77
82949;BME280;72736;50.236;18.876;2024-01-11T06:01:49;99702.60;;;-14.43;68.83
82949;BME280;72736;50.236;18.876;2024-01-11T06:06:55;99702.49;;;-14.46;69.04
82949;BME280;72736;50.236;18.876;2024-01-11T06:12:00;99707.52;;;-14.47;69.18
82949;BME280;72736;50.236;18.876;2024-01-11T06:17:06;99719.81;;;-14.45;69.75
82949;BME280;72736;50.236;18.876;2024-01-11T06:22:15;99718.24;;;-14.36;70.32
82949;BME280;72736;50.236;18.876;2024-01-11T06:27:21;99713.96;;;-14.30;69.93
82949;BME280;72736;50.236;18.876;2024-01-11T06:32:27;99709.33;;;-14.30;69.81
82949;BME280;72736;50.236;18.876;2024-01-11T06:37:33;99697.14;;;-14.29;69.39
82949;BME280;72736;50.236;18.876;2024-01-11T06:42:38;99685.97;;;-14.29;69.70
82949;BME280;72736;50.236;18.876;2024-01-11T06:47:44;99662.27;;;-14.28;69.48
82949;BME280;72736;50.236;18.876;2024-01-11T06:52:51;99648.41;;;-14.29;69.70
82949;BME280;72736;50.236;18.876;2024-01-11T06:57:57;99640.39;;;-14.31;69.45
82949;BME280;72736;50.236;18.876;2024-01-11T07:03:04;99630.35;;;-14.27;69.88
82949;BME280;72736;50.236;18.876;2024-01-11T07:08:10;99642.38;;;-14.22;71.31
82949;BME280;72736;50.236;18.876;2024-01-11T07:13:16;99635.14;;;-14.08;71.69
82949;BME280;72736;50.236;18.876;2024-01-11T07:18:22;99616.94;;;-13.95;71.27
82949;BME280;72736;50.236;18.876;2024-01-11T07:23:28;99609.52;;;-13.87;70.74
82949;BME280;72736;50.236;18.876;2024-01-11T07:28:34;99605.23;;;-13.81;70.99
82949;BME280;72736;50.236;18.876;2024-01-11T07:33:41;99608.91;;;-13.72;71.31
82949;BME280;72736;50.236;18.876;2024-01-11T07:38:47;99617.16;;;-13.54;72.11
82949;BME280;72736;50.236;18.876;2024-01-11T07:43:53;99635.98;;;-13.29;72.54
82949;BME280;72736;50.236;18.876;2024-01-11T07:49:03;99648.63;;;-13.04;73.15
82949;BME280;72736;50.236;18.876;2024-01-11T07:54:09;99631.32;;;-12.79;73.15
82949;BME280;72736;50.236;18.876;2024-01-11T07:59:15;99610.46;;;-12.45;73.62
82949;BME280;72736;50.236;18.876;2024-01-11T08:04:20;99599.52;;;-11.98;74.01
82949;BME280;72736;50.236;18.876;2024-01-11T08:09:27;99589.20;;;-11.38;75.42
82949;BME280;72736;50.236;18.876;2024-01-11T08:14:33;99570.48;;;-10.96;75.94
82949;BME280;72736;50.236;18.876;2024-01-11T08:19:40;99563.67;;;-10.64;76.65
82949;BME280;72736;50.236;18.876;2024-01-11T08:24:47;99568.55;;;-10.37;77.77
82949;BME280;72736;50.236;18.876;2024-01-11T08:29:53;99568.58;;;-10.09;78.68
82949;BME280;72736;50.236;18.876;2024-01-11T08:34:59;99564.52;;;-9.84;78.98
82949;BME280;72736;50.236;18.876;2024-01-11T08:40:07;99552.48;;;-9.59;80.17
82949;BME280;72736;50.236;18.876;2024-01-11T08:45:14;99543.16;;;-9.33;79.87
82949;BME280;72736;50.236;18.876;2024-01-11T08:50:22;99555.71;;;-9.13;79.79
82949;BME280;72736;50.236;18.876;2024-01-11T08:55:30;99571.42;;;-8.94;81.19
82949;BME280;72736;50.236;18.876;2024-01-11T09:00:37;99584.66;;;-8.74;81.06
82949;BME280;72736;50.236;18.876;2024-01-11T09:05:43;99589.83;;;-8.52;80.99
82949;BME280;72736;50.236;18.876;2024-01-11T09:10:49;99597.31;;;-8.26;81.05
82949;BME280;72736;50.236;18.876;2024-01-11T09:15:55;99587.55;;;-7.95;81.21
82949;BME280;72736;50.236;18.876;2024-01-11T09:21:01;99592.98;;;-7.65;80.57
82949;BME280;72736;50.236;18.876;2024-01-11T09:26:08;99599.80;;;-7.38;79.59
82949;BME280;72736;50.236;18.876;2024-01-11T09:31:14;99595.84;;;-7.16;78.38
82949;BME280;72736;50.236;18.876;2024-01-11T09:36:20;99588.23;;;-6.97;77.51
82949;BME280;72736;50.236;18.876;2024-01-11T09:41:26;99578.72;;;-6.79;76.62
82949;BME280;72736;50.236;18.876;2024-01-11T09:46:33;99590.18;;;-6.64;76.15
82949;BME280;72736;50.236;18.876;2024-01-11T09:51:39;99570.77;;;-6.50;75.59
82949;BME280;72736;50.236;18.876;2024-01-11T09:56:45;99551.30;;;-6.31;74.92
82949;BME280;72736;50.236;18.876;2024-01-11T10:01:52;99544.88;;;-6.17;74.20
82949;BME280;72736;50.236;18.876;2024-01-11T10:06:58;99531.79;;;-6.05;74.04
82949;BME280;72736;50.236;18.876;2024-01-11T10:12:08;99525.14;;;-5.93;73.63
82949;BME280;72736;50.236;18.876;2024-01-11T10:17:14;99524.27;;;-5.85;73.32
82949;BME280;72736;50.236;18.876;2024-01-11T10:22:26;99515.00;;;-5.78;73.29
82949;BME280;72736;50.236;18.876;2024-01-11T10:27:33;99504.82;;;-5.71;73.75
82949;BME280;72736;50.236;18.876;2024-01-11T10:32:40;99503.08;;;-5.62;73.52
82949;BME280;72736;50.236;18.876;2024-01-11T10:37:50;99494.13;;;-5.55;73.67
82949;BME280;72736;50.236;18.876;2024-01-11T10:43:01;99494.66;;;-5.50;73.38
82949;BME280;72736;50.236;18.876;2024-01-11T10:48:14;99483.38;;;-5.43;73.41
82949;BME280;72736;50.236;18.876;2024-01-11T10:53:28;99484.23;;;-5.31;73.12
82949;BME280;72736;50.236;18.876;2024-01-11T10:58:38;99473.77;;;-5.17;72.60
82949;BME280;72736;50.236;18.876;2024-01-11T11:03:45;99457.89;;;-5.06;72.51
82949;BME280;72736;50.236;18.876;2024-01-11T11:08:53;99454.83;;;-4.99;71.73
82949;BME280;72736;50.236;18.876;2024-01-11T11:14:01;99454.92;;;-4.93;71.36
82949;BME280;72736;50.236;18.876;2024-01-11T11:19:07;99458.17;;;-4.84;71.11
82949;BME280;72736;50.236;18.876;2024-01-11T11:24:13;99445.45;;;-4.74;70.44
82949;BME280;72736;50.236;18.876;2024-01-11T11:29:18;99433.58;;;-4.63;70.27
82949;BME280;72736;50.236;18.876;2024-01-11T11:34:42;99430.16;;;-4.51;70.03
82949;BME280;72736;50.236;18.876;2024-01-11T11:39:50;99419.61;;;-4.34;70.36
82949;BME280;72736;50.236;18.876;2024-01-11T11:44:55;99407.73;;;-4.19;70.56
82949;BME280;72736;50.236;18.876;2024-01-11T11:50:10;99405.60;;;-4.06;69.85
82949;BME280;72736;50.236;18.876;2024-01-11T11:55:17;99397.31;;;-3.97;69.96
82949;BME280;72736;50.236;18.876;2024-01-11T12:00:24;99388.14;;;-3.91;69.64
82949;BME280;72736;50.236;18.876;2024-01-11T12:05:39;99396.09;;;-3.87;69.29
82949;BME280;72736;50.236;18.876;2024-01-11T12:10:45;99392.40;;;-3.85;69.62
82949;BME280;72736;50.236;18.876;2024-01-11T12:15:51;99393.61;;;-3.82;69.11
82949;BME280;72736;50.236;18.876;2024-01-11T12:20:57;99391.25;;;-3.81;68.33
82949;BME280;72736;50.236;18.876;2024-01-11T12:26:03;99386.86;;;-3.78;68.91
82949;BME280;72736;50.236;18.876;2024-01-11T12:31:17;99375.10;;;-3.77;69.00
82949;BME280;72736;50.236;18.876;2024-01-11T12:36:25;99360.04;;;-3.77;68.59
82949;BME280;72736;50.236;18.876;2024-01-11T12:41:31;99353.15;;;-3.75;68.83
82949;BME280;72736;50.236;18.876;2024-01-11T12:46:38;99358.44;;;-3.73;68.38
82949;BME280;72736;50.236;18.876;2024-01-11T12:51:45;99347.61;;;-3.73;68.79
82949;BME280;72736;50.236;18.876;2024-01-11T12:56:51;99341.55;;;-3.74;68.51
82949;BME280;72736;50.236;18.876;2024-01-11T13:01:57;99342.05;;;-3.76;68.59
82949;BME280;72736;50.236;18.876;2024-01-11T13:07:04;99327.92;;;-3.79;69.28
82949;BME280;72736;50.236;18.876;2024-01-11T13:12:12;99315.11;;;-3.80;69.34
82949;BME280;72736;50.236;18.876;2024-01-11T13:17:17;99309.27;;;-3.81;69.52
82949;BME280;72736;50.236;18.876;2024-01-11T13:22:24;99298.14;;;-3.84;69.84
82949;BME280;72736;50.236;18.876;2024-01-11T13:27:31;99291.39;;;-3.85;69.65
82949;BME280;72736;50.236;18.876;2024-01-11T13:32:37;99288.07;;;-3.87;70.16
82949;BME280;72736;50.236;18.876;2024-01-11T13:37:43;99295.14;;;-3.88;70.18
82949;BME280;72736;50.236;18.876;2024-01-11T13:42:50;99302.34;;;-3.89;71.00
82949;BME280;72736;50.236;18.876;2024-01-11T13:47:56;99303.37;;;-3.89;70.53
82949;BME280;72736;50.236;18.876;2024-01-11T13:53:02;99305.59;;;-3.88;70.42
82949;BME280;72736;50.236;18.876;2024-01-11T13:58:08;99309.81;;;-3.89;71.16
82949;BME280;72736;50.236;18.876;2024-01-11T14:03:14;99303.45;;;-3.88;71.06
82949;BME280;72736;50.236;18.876;2024-01-11T14:08:21;99297.29;;;-3.87;71.85
82949;BME280;72736;50.236;18.876;2024-01-11T14:13:26;99303.39;;;-3.87;71.12
82949;BME280;72736;50.236;18.876;2024-01-11T14:18:34;99300.52;;;-3.88;72.18
82949;BME280;72736;50.236;18.876;2024-01-11T14:23:41;99301.48;;;-3.89;71.39
82949;BME280;72736;50.236;18.876;2024-01-11T14:28:47;99304.51;;;-3.90;72.07
82949;BME280;72736;50.236;18.876;2024-01-11T14:33:54;99310.30;;;-3.91;72.06
82949;BME280;72736;50.236;18.876;2024-01-11T14:39:00;99317.09;;;-3.90;72.90
82949;BME280;72736;50.236;18.876;2024-01-11T14:44:27;99332.04;;;-3.92;73.09
82949;BME280;72736;50.236;18.876;2024-01-11T14:49:32;99336.59;;;-3.95;73.37
82949;BME280;72736;50.236;18.876;2024-01-11T14:54:38;99356.55;;;-3.96;74.11
82949;BME280;72736;50.236;18.876;2024-01-11T14:59:46;99359.18;;;-3.98;75.02
82949;BME280;72736;50.236;18.876;2024-01-11T15:04:53;99361.31;;;-3.99;75.43
82949;BME280;72736;50.236;18.876;2024-01-11T15:09:58;99361.77;;;-4.00;75.85
82949;BME280;72736;50.236;18.876;2024-01-11T15:15:07;99358.06;;;-4.02;75.75
82949;BME280;72736;50.236;18.876;2024-01-11T15:20:15;99366.69;;;-4.01;75.94
82949;BME280;72736;50.236;18.876;2024-01-11T15:25:22;99359.33;;;-4.00;76.25
82949;BME280;72736;50.236;18.876;2024-01-11T15:30:32;99360.33;;;-4.02;76.70
82949;BME280;72736;50.236;18.876;2024-01-11T15:35:39;99360.46;;;-4.04;77.15
82949;BME280;72736;50.236;18.876;2024-01-11T15:40:45;99363.89;;;-4.08;77.01
82949;BME280;72736;50.236;18.876;2024-01-11T15:45:52;99364.70;;;-4.10;77.42
82949;BME280;72736;50.236;18.876;2024-01-11T15:50:59;99370.59;;;-4.12;77.58
82949;BME280;72736;50.236;18.876;2024-01-11T15:56:07;99373.30;;;-4.13;77.98
82949;BME280;72736;50.236;18.876;2024-01-11T16:01:12;99375.77;;;-4.14;78.52
82949;BME280;72736;50.236;18.876;2024-01-11T16:06:18;99375.17;;;-4.15;78.62
82949;BME280;72736;50.236;18.876;2024-01-11T16:11:24;99377.95;;;-4.17;78.61
82949;BME280;72736;50.236;18.876;2024-01-11T16:16:33;99379.09;;;-4.19;79.31
82949;BME280;72736;50.236;18.876;2024-01-11T16:21:39;99384.63;;;-4.18;79.00
82949;BME280;72736;50.236;18.876;2024-01-11T16:26:46;99383.89;;;-4.15;79.30
82949;BME280;72736;50.236;18.876;2024-01-11T16:31:54;99381.36;;;-4.14;79.22
82949;BME280;72736;50.236;18.876;2024-01-11T16:37:00;99391.06;;;-4.13;79.38
82949;BME280;72736;50.236;18.876;2024-01-11T16:42:06;99395.66;;;-4.11;78.93
82949;BME280;72736;50.236;18.876;2024-01-11T16:47:14;99407.89;;;-4.11;79.05
82949;BME280;72736;50.236;18.876;2024-01-11T16:52:21;99422.42;;;-4.12;79.35
82949;BME280;72736;50.236;18.876;2024-01-11T16:57:26;99425.48;;;-4.14;79.28
82949;BME280;72736;50.236;18.876;2024-01-11T17:02:32;99417.91;;;-4.13;79.71
82949;BME280;72736;50.236;18.876;2024-01-11T17:07:39;99417.36;;;-4.12;79.91
82949;BME280;72736;50.236;18.876;2024-01-11T17:12:44;99416.11;;;-4.12;79.73
82949;BME280;72736;50.236;18.876;2024-01-11T17:17:50;99400.95;;;-4.12;80.07
82949;BME280;72736;50.236;18.876;2024-01-11T17:22:56;99401.29;;;-4.12;79.99
82949;BME280;72736;50.236;18.876;2024-01-11T17:28:02;99399.54;;;-4.12;79.96
82949;BME280;72736;50.236;18.876;2024-01-11T17:33:08;99408.55;;;-4.11;80.18
82949;BME280;72736;50.236;18.876;2024-01-11T17:38:15;99417.18;;;-4.09;79.81
82949;BME280;72736;50.236;18.876;2024-01-11T17:43:21;99419.92;;;-4.09;80.06
82949;BME280;72736;50.236;18.876;2024-01-11T17:48:26;99421.14;;;-4.08;80.11
82949;BME280;72736;50.236;18.876;2024-01-11T17:53:33;99418.54;;;-4.09;80.40
82949;BME280;72736;50.236;18.876;2024-01-11T17:58:39;99413.36;;;-4.09;80.34
82949;BME280;72736;50.236;18.876;2024-01-11T18:03:44;99418.08;;;-4.10;80.79
82949;BME280;72736;50.236;18.876;2024-01-11T18:08:50;99421.39;;;-4.07;80.84
82949;BME280;72736;50.236;18.876;2024-01-11T18:13:57;99420.72;;;-4.05;80.77
82949;BME280;72736;50.236;18.876;2024-01-11T18:19:03;99414.90;;;-4.04;81.26
82949;BME280;72736;50.236;18.876;2024-01-11T18:24:09;99413.52;;;-4.02;80.89
82949;BME280;72736;50.236;18.876;2024-01-11T18:29:15;99410.91;;;-3.99;81.17
82949;BME280;72736;50.236;18.876;2024-01-11T18:34:21;99413.18;;;-3.97;81.14
82949;BME280;72736;50.236;18.876;2024-01-11T18:39:27;99412.08;;;-3.96;81.36
82949;BME280;72736;50.236;18.876;2024-01-11T18:44:33;99414.80;;;-3.96;81.42
82949;BME280;72736;50.236;18.876;2024-01-11T18:49:38;99413.80;;;-3.93;81.53
82949;BME280;72736;50.236;18.876;2024-01-11T18:54:44;99418.77;;;-3.92;81.86
82949;BME280;72736;50.236;18.876;2024-01-11T18:59:56;99413.50;;;-3.92;81.66
82949;BME280;72736;50.236;18.876;2024-01-11T19:05:03;99399.77;;;-3.90;81.74
82949;BME280;72736;50.236;18.876;2024-01-11T19:10:11;99400.41;;;-3.87;82.64
82949;BME280;72736;50.236;18.876;2024-01-11T19:15:17;99395.49;;;-3.86;83.34
82949;BME280;72736;50.236;18.876;2024-01-11T19:20:24;99398.70;;;-3.85;83.06
82949;BME280;72736;50.236;18.876;2024-01-11T19:25:31;99405.98;;;-3.84;83.05
82949;BME280;72736;50.236;18.876;2024-01-11T19:30:38;99406.71;;;-3.85;82.55
82949;BME280;72736;50.236;18.876;2024-01-11T19:35:46;99408.97;;;-3.85;82.59
82949;BME280;72736;50.236;18.876;2024-01-11T19:40:52;99407.69;;;-3.84;83.79
82949;BME280;72736;50.236;18.876;2024-01-11T19:45:58;99399.23;;;-3.83;82.98
82949;BME280;72736;50.236;18.876;2024-01-11T19:51:10;99405.02;;;-3.81;83.05
82949;BME280;72736;50.236;18.876;2024-01-11T19:56:20;99405.34;;;-3.80;83.13
82949;BME280;72736;50.236;18.876;2024-01-11T20:01:26;99406.02;;;-3.80;82.88
82949;BME280;72736;50.236;18.876;2024-01-11T20:06:32;99401.18;;;-3.78;83.49
82949;BME280;72736;50.236;18.876;2024-01-11T20:11:38;99398.52;;;-3.78;83.37
82949;BME280;72736;50.236;18.876;2024-01-11T20:16:45;99399.68;;;-3.77;83.34
82949;BME280;72736;50.236;18.876;2024-01-11T20:21:51;99410.68;;;-3.77;83.34
82949;BME280;72736;50.236;18.876;2024-01-11T20:26:58;99418.59;;;-3.75;83.64
82949;BME280;72736;50.236;18.876;2024-01-11T20:32:09;99417.85;;;-3.72;84.08
82949;BME280;72736;50.236;18.876;2024-01-11T20:37:15;99421.35;;;-3.69;83.54
82949;BME280;72736;50.236;18.876;2024-01-11T20:42:21;99419.67;;;-3.68;83.87
82949;BME280;72736;50.236;18.876;2024-01-11T20:47:28;99423.80;;;-3.67;84.26
82949;BME280;72736;50.236;18.876;2024-01-11T20:52:34;99421.88;;;-3.67;83.56
82949;BME280;72736;50.236;18.876;2024-01-11T20:57:40;99418.30;;;-3.66;83.47
82949;BME280;72736;50.236;18.876;2024-01-11T21:02:45;99424.32;;;-3.65;84.01
82949;BME280;72736;50.236;18.876;2024-01-11T21:07:51;99432.70;;;-3.62;83.89
82949;BME280;72736;50.236;18.876;2024-01-11T21:12:57;99452.46;;;-3.60;83.98
82949;BME280;72736;50.236;18.876;2024-01-11T21:18:03;99464.31;;;-3.58;84.20
82949;BME280;72736;50.236;18.876;2024-01-11T21:23:09;99477.04;;;-3.55;83.88
82949;BME280;72736;50.236;18.876;2024-01-11T21:28:14;99481.16;;;-3.54;83.43
82949;BME280;72736;50.236;18.876;2024-01-11T21:33:20;99478.02;;;-3.52;84.70
82949;BME280;72736;50.236;18.876;2024-01-11T21:38:26;99478.52;;;-3.49;84.09
82949;BME280;72736;50.236;18.876;2024-01-11T21:43:32;99478.06;;;-3.50;83.60
82949;BME280;72736;50.236;18.876;2024-01-11T21:48:38;99482.25;;;-3.50;83.76
82949;BME280;72736;50.236;18.876;2024-01-11T21:53:44;99478.44;;;-3.50;84.16
82949;BME280;72736;50.236;18.876;2024-01-11T21:58:50;99476.71;;;-3.51;83.60
82949;BME280;72736;50.236;18.876;2024-01-11T22:03:56;99474.11;;;-3.50;84.47
82949;BME280;72736;50.236;18.876;2024-01-11T22:09:04;99483.33;;;-3.50;84.70
82949;BME280;72736;50.236;18.876;2024-01-11T22:14:10;99484.48;;;-3.49;84.62
82949;BME280;72736;50.236;18.876;2024-01-11T22:19:15;99487.59;;;-3.49;84.20
82949;BME280;72736;50.236;18.876;2024-01-11T22:24:21;99489.42;;;-3.47;84.62
82949;BME280;72736;50.236;18.876;2024-01-11T22:29:27;99491.07;;;-3.46;84.55
82949;BME280;72736;50.236;18.876;2024-01-11T22:34:33;99494.27;;;-3.45;84.72
82949;BME280;72736;50.236;18.876;2024-01-11T22:39:39;99492.38;;;-3.43;84.39
82949;BME280;72736;50.236;18.876;2024-01-11T22:44:45;99486.16;;;-3.41;84.52
82949;BME280;72736;50.236;18.876;2024-01-11T22:49:51;99488.55;;;-3.40;85.04
82949;BME280;72736;50.236;18.876;2024-01-11T22:54:58;99483.57;;;-3.39;84.80
82949;BME280;72736;50.236;18.876;2024-01-11T23:00:05;99482.38;;;-3.37;84.36
82949;BME280;72736;50.236;18.876;2024-01-11T23:05:25;99481.19;;;-3.35;84.33
82949;BME280;72736;50.236;18.876;2024-01-11T23:10:32;99485.76;;;-3.35;84.54
82949;BME280;72736;50.236;18.876;2024-01-11T23:15:39;99483.95;;;-3.34;84.12
82949;BME280;72736;50.236;18.876;2024-01-11T23:20:45;99487.54;;;-3.33;84.61
82949;BME280;72736;50.236;18.876;2024-01-11T23:25:51;99492.14;;;-3.32;84.56
82949;BME280;72736;50.236;18.876;2024-01-11T23:30:57;99500.19;;;-3.29;84.56
82949;BME280;72736;50.236;18.876;2024-01-11T23:36:04;99501.14;;;-3.28;84.74
82949;BME280;72736;50.236;18.876;2024-01-11T23:41:10;99500.41;;;-3.28;85.10
82949;BME280;72736;50.236;18.876;2024-01-11T23:46:16;99496.61;;;-3.26;84.63
82949;BME280;72736;50.236;18.876;2024-01-11T23:51:21;99502.75;;;-3.24;84.48
82949;BME280;72736;50.236;18.876;2024-01-11T23:56:28;99509.57;;;-3.22;83.91
